Time,TemperatureF,DewpointF,PressureIn,WindDirection,WindDirectionDegrees,WindSpeedMPH,WindSpeedGustMPH,Humidity,HourlyPrecipIn,Conditions,Clouds,dailyrainin,SoftwareType,DateUTC
2013-10-23 00:01:00,53.0,45.3,30.05,North,360,0.0,-999.0,75,0.00,,,0.00,WeatherSnoop3.0,2013-10-23 05:01:00,
2013-10-23 00:06:00,53.2,45.1,30.05,North,360,0.0,-999.0,74,0.00,,,0.00,WeatherSnoop3.0,2013-10-23 05:06:00,
2013-10-23 00:11:00,53.4,45.7,30.05,North,360,0.0,-999.0,75,0.00,,,0.00,WeatherSnoop3.0,2013-10-23 05:11:00,
2013-10-23 00:16:00,53.5,45.8,30.05,North,360,0.0,-999.0,75,0.00,,,0.00,WeatherSnoop3.0,2013-10-23 05:16:00,
2013-10-23 00:21:00,53.5,45.4,30.05,North,360,0.0,-999.0,74,0.00,,,0.00,WeatherSnoop3.0,2013-10-23 05:21:00,
2013-10-23 00:26:00,53.3,45.6,30.05,North,360,0.0,-999.0,75,0.00,,,0.00,WeatherSnoop3.0,2013-10-23 05:26:00,
2013-10-23 00:31:00,52.9,45.9,30.05,North,360,0.0,-999.0,77,0.00,,,0.00,WeatherSnoop3.0,2013-10-23 05:31:00,
2013-10-23 00:36:00,52.5,45.5,30.06,North,360,0.0,-999.0,77,0.00,,,0.00,WeatherSnoop3.0,2013-10-23 05:36:00,
2013-10-23 00:41:00,52.2,45.2,30.06,North,360,0.0,-999.0,77,0.00,,,0.00,WeatherSnoop3.0,2013-10-23 05:41:00,
2013-10-23 00:46:00,51.9,45.3,30.06,North,360,0.0,-999.0,78,0.00,,,0.00,WeatherSnoop3.0,2013-10-23 05:46:00,
2013-10-23 00:51:00,51.7,45.4,30.06,North,360,0.0,-999.0,79,0.00,,,0.00,WeatherSnoop3.0,2013-10-23 05:51:00,
2013-10-23 00:56:00,51.4,45.1,30.06,North,360,0.0,-999.0,79,0.00,,,0.00,WeatherSnoop3.0,2013-10-23 05:56:00,
2013-10-23 01:01:00,51.3,45.3,30.06,North,360,0.0,-999.0,80,0.00,,,0.00,WeatherSnoop3.0,2013-10-23 06:01:00,
2013-10-23 01:06:00,51.0,45.1,30.06,North,360,0.0,-999.0,80,0.00,,,0.00,WeatherSnoop3.0,2013-10-23 06:06:00,
2013-10-23 01:11:00,50.8,45.2,30.06,North,360,0.0,-999.0,81,0.00,,,0.00,WeatherSnoop3.0,2013-10-23 06:11:00,
2013-10-23 01:16:00,50.8,45.2,30.06,North,360,0.0,-999.0,81,0.00,,,0.00,WeatherSnoop3.0,2013-10-23 06:16:00,
2013-10-23 01:21:00,50.9,45.3,30.06,North,360,0.0,-999.0,81,0.00,,,0.00,WeatherSnoop3.0,2013-10-23 06:21:00,
2013-10-23 01:26:00,51.4,45.1,30.07,North,360,0.0,-999.0,79,0.00,,,0.00,WeatherSnoop3.0,2013-10-23 06:26:00,
2013-10-23 01:31:00,52.0,45.0,30.07,North,360,0.0,-999.0,77,0.00,,,0.00,WeatherSnoop3.0,2013-10-23 06:31:00,
2013-10-23 01:36:00,52.2,45.2,30.07,North,360,0.0,-999.0,77,0.00,,,0.00,WeatherSnoop3.0,2013-10-23 06:36:00,
2013-10-23 01:41:00,52.2,45.2,30.07,North,360,0.0,-999.0,77,0.00,,,0.00,WeatherSnoop3.0,2013-10-23 06:41:00,
2013-10-23 01:46:00,52.2,45.2,30.07,North,360,0.0,-999.0,77,0.00,,,0.00,WeatherSnoop3.0,2013-10-23 06:46:00,
2013-10-23 01:51:00,52.2,45.2,30.07,North,360,0.0,-999.0,77,0.00,,,0.00,WeatherSnoop3.0,2013-10-23 06:51:00,
2013-10-23 01:56:00,52.2,45.2,30.07,North,360,0.0,-999.0,77,0.00,,,0.00,WeatherSnoop3.0,2013-10-23 06:56:00,
2013-10-23 02:01:00,52.2,45.2,30.07,North,360,0.0,-999.0,77,0.00,,,0.00,WeatherSnoop3.0,2013-10-23 07:01:00,
2013-10-23 02:06:00,52.2,45.2,30.07,North,360,0.0,-999.0,77,0.00,,,0.00,WeatherSnoop3.0,2013-10-23 07:06:00,
2013-10-23 02:11:00,52.2,45.2,30.07,North,360,0.0,-999.0,77,0.00,,,0.00,WeatherSnoop3.0,2013-10-23 07:11:00,
2013-10-23 02:16:00,52.2,45.2,30.07,North,360,0.0,-999.0,77,0.00,,,0.00,WeatherSnoop3.0,2013-10-23 07:16:00,
2013-10-23 02:21:00,52.2,45.2,30.07,North,360,0.0,-999.0,77,0.00,,,0.00,WeatherSnoop3.0,2013-10-23 07:21:00,
2013-10-23 02:26:00,52.2,45.2,30.07,North,360,0.0,-999.0,77,0.00,,,0.00,WeatherSnoop3.0,2013-10-23 07:26:00,
2013-10-23 02:31:00,52.2,45.2,30.07,North,360,0.0,-999.0,77,0.00,,,0.00,WeatherSnoop3.0,2013-10-23 07:31:00,
2013-10-23 05:16:00,46.7,40.5,30.10,North,5,0.0,-999.0,79,0.00,,,0.00,WeatherSnoop3.0,2013-10-23 10:16:00,
2013-10-23 05:21:00,46.5,40.3,30.11,North,5,0.0,-999.0,79,0.00,,,0.00,WeatherSnoop3.0,2013-10-23 10:21:00,
2013-10-23 05:26:00,46.1,40.3,30.11,North,5,0.0,-999.0,80,0.00,,,0.00,WeatherSnoop3.0,2013-10-23 10:26:00,
2013-10-23 05:31:00,45.9,40.4,30.11,North,5,0.0,-999.0,81,0.00,,,0.00,WeatherSnoop3.0,2013-10-23 10:31:00,
2013-10-23 05:36:00,45.6,40.1,30.12,North,5,0.0,-999.0,81,0.00,,,0.00,WeatherSnoop3.0,2013-10-23 10:36:00,
2013-10-23 05:41:00,45.4,40.2,30.12,North,5,0.0,-999.0,82,0.00,,,0.00,WeatherSnoop3.0,2013-10-23 10:41:00,
2013-10-23 05:46:00,45.1,40.3,30.12,North,5,0.0,-999.0,83,0.00,,,0.00,WeatherSnoop3.0,2013-10-23 10:46:00,
2013-10-23 05:51:00,44.9,40.4,30.13,North,5,0.0,-999.0,84,0.00,,,0.00,WeatherSnoop3.0,2013-10-23 10:51:00,
2013-10-23 05:56:00,44.8,40.6,30.12,North,5,0.0,-999.0,85,0.00,,,0.00,WeatherSnoop3.0,2013-10-23 10:56:00,
2013-10-23 06:01:00,44.6,40.4,30.12,North,5,0.0,-999.0,85,0.00,,,0.00,WeatherSnoop3.0,2013-10-23 11:01:00,
2013-10-23 06:06:00,44.5,40.3,30.12,North,5,0.0,-999.0,85,0.00,,,0.00,WeatherSnoop3.0,2013-10-23 11:06:00,
2013-10-23 07:03:00,43.3,40.0,30.14,North,5,0.0,-999.0,88,0.00,,,0.00,WeatherSnoop3.0,2013-10-23 12:03:00,
2013-10-23 07:08:00,43.2,39.9,30.14,North,5,0.0,-999.0,88,0.00,,,0.00,WeatherSnoop3.0,2013-10-23 12:08:00,
2013-10-23 07:13:00,43.2,39.6,30.14,North,5,0.0,-999.0,87,0.00,,,0.00,WeatherSnoop3.0,2013-10-23 12:13:00,
2013-10-23 07:18:00,43.2,39.6,30.14,North,5,0.0,-999.0,87,0.00,,,0.00,WeatherSnoop3.0,2013-10-23 12:18:00,
2013-10-23 07:23:00,43.2,39.6,30.14,North,5,0.0,-999.0,87,0.00,,,0.00,WeatherSnoop3.0,2013-10-23 12:23:00,
2013-10-23 07:28:00,43.2,39.6,30.14,North,5,0.0,-999.0,87,0.00,,,0.00,WeatherSnoop3.0,2013-10-23 12:28:00,
2013-10-23 07:34:00,43.4,39.8,30.15,North,9,0.0,-999.0,87,0.00,,,0.00,WeatherSnoop3.0,2013-10-23 12:34:00,
2013-10-23 07:39:00,43.4,39.5,30.15,North,9,0.0,-999.0,86,0.00,,,0.00,WeatherSnoop3.0,2013-10-23 12:39:00,
2013-10-23 07:45:00,43.1,39.5,30.15,North,9,0.0,-999.0,87,0.00,,,0.00,WeatherSnoop3.0,2013-10-23 12:45:00,
2013-10-23 07:50:00,43.0,39.7,30.15,North,9,0.0,-999.0,88,0.00,,,0.00,WeatherSnoop3.0,2013-10-23 12:50:00,
2013-10-23 07:55:00,43.0,39.7,30.15,North,9,0.0,-999.0,88,0.00,,,0.00,WeatherSnoop3.0,2013-10-23 12:55:00,
2013-10-23 08:00:00,42.9,39.6,30.15,North,9,0.0,-999.0,88,0.00,,,0.00,WeatherSnoop3.0,2013-10-23 13:00:00,
2013-10-23 08:05:00,42.9,39.6,30.15,North,9,0.0,-999.0,88,0.00,,,0.00,WeatherSnoop3.0,2013-10-23 13:05:00,
2013-10-23 08:10:00,42.9,39.6,30.15,North,9,0.0,-999.0,88,0.00,,,0.00,WeatherSnoop3.0,2013-10-23 13:10:00,
2013-10-23 08:15:00,43.0,40.0,30.15,North,9,0.0,-999.0,89,0.00,,,0.00,WeatherSnoop3.0,2013-10-23 13:15:00,
2013-10-23 08:20:00,43.0,40.0,30.15,North,9,0.0,-999.0,89,0.00,,,0.00,WeatherSnoop3.0,2013-10-23 13:20:00,
2013-10-23 08:25:00,43.1,40.1,30.15,North,5,0.0,-999.0,89,0.00,,,0.00,WeatherSnoop3.0,2013-10-23 13:25:00,
2013-10-23 08:30:00,43.2,39.9,30.15,North,5,0.0,-999.0,88,0.00,,,0.00,WeatherSnoop3.0,2013-10-23 13:30:00,
2013-10-23 08:35:00,43.5,40.2,30.15,North,9,0.0,-999.0,88,0.00,,,0.00,WeatherSnoop3.0,2013-10-23 13:35:00,
2013-10-23 08:40:00,44.2,40.6,30.15,North,9,0.0,-999.0,87,0.00,,,0.00,WeatherSnoop3.0,2013-10-23 13:40:00,
2013-10-23 08:45:00,44.9,40.7,30.15,North,5,0.0,-999.0,85,0.00,,,0.00,WeatherSnoop3.0,2013-10-23 13:45:00,
2013-10-23 08:50:00,45.7,40.8,30.15,North,5,0.0,-999.0,83,0.00,,,0.00,WeatherSnoop3.0,2013-10-23 13:50:00,
2013-10-23 08:55:00,46.6,40.8,30.15,North,5,0.0,-999.0,80,0.00,,,0.00,WeatherSnoop3.0,2013-10-23 13:55:00,
2013-10-23 09:00:00,47.5,41.0,30.15,North,5,0.0,-999.0,78,0.00,,,0.00,WeatherSnoop3.0,2013-10-23 14:00:00,
2013-10-23 09:05:00,48.3,41.1,30.15,North,5,0.0,-999.0,76,0.00,,,0.00,WeatherSnoop3.0,2013-10-23 14:05:00,
2013-10-23 09:10:00,49.1,41.5,30.15,North,5,0.0,-999.0,75,0.00,,,0.00,WeatherSnoop3.0,2013-10-23 14:10:00,
2013-10-23 09:16:00,49.7,41.8,30.16,North,360,0.0,-999.0,74,0.00,,,0.00,WeatherSnoop3.0,2013-10-23 14:16:00,
2013-10-23 09:21:00,50.2,41.5,30.16,North,5,0.0,-999.0,72,0.00,,,0.00,WeatherSnoop3.0,2013-10-23 14:21:00,
2013-10-23 09:27:00,50.6,41.5,30.16,North,5,0.0,-999.0,71,0.00,,,0.00,WeatherSnoop3.0,2013-10-23 14:27:00,
2013-10-23 09:32:00,51.1,42.0,30.16,North,5,0.0,-999.0,71,0.00,,,0.00,WeatherSnoop3.0,2013-10-23 14:32:00,
2013-10-23 09:37:00,51.5,42.0,30.16,North,5,0.0,-999.0,70,0.00,,,0.00,WeatherSnoop3.0,2013-10-23 14:37:00,
2013-10-23 09:42:00,52.0,42.1,30.16,North,5,0.0,-999.0,69,0.00,,,0.00,WeatherSnoop3.0,2013-10-23 14:42:00,
2013-10-23 09:47:00,52.5,42.2,30.15,North,5,0.0,-999.0,68,0.00,,,0.00,WeatherSnoop3.0,2013-10-23 14:47:00,
2013-10-23 09:52:00,52.7,42.1,30.15,North,5,0.0,-999.0,67,0.00,,,0.00,WeatherSnoop3.0,2013-10-23 14:52:00,
2013-10-23 09:57:00,52.9,42.2,30.16,ESE,119,0.0,-999.0,67,0.00,,,0.00,WeatherSnoop3.0,2013-10-23 14:57:00,
2013-10-23 10:03:00,53.4,42.3,30.16,ESE,118,0.0,-999.0,66,0.00,,,0.00,WeatherSnoop3.0,2013-10-23 15:03:00,
2013-10-23 10:08:00,53.7,42.6,30.16,ESE,119,0.0,-999.0,66,0.00,,,0.00,WeatherSnoop3.0,2013-10-23 15:08:00,
2013-10-23 10:13:00,54.1,42.6,30.16,SE,139,0.0,-999.0,65,0.00,,,0.00,WeatherSnoop3.0,2013-10-23 15:13:00,
2013-10-23 10:18:00,54.4,42.1,30.16,SSE,167,0.0,-999.0,63,0.00,,,0.00,WeatherSnoop3.0,2013-10-23 15:18:00,
2013-10-23 10:23:00,54.4,41.2,30.16,NE,38,0.0,-999.0,61,0.00,,,0.00,WeatherSnoop3.0,2013-10-23 15:23:00,
2013-10-23 10:29:00,54.6,41.4,30.16,NE,37,0.0,-999.0,61,0.00,,,0.00,WeatherSnoop3.0,2013-10-23 15:29:00,
2013-10-23 10:34:00,55.2,42.4,30.16,NE,35,0.0,-999.0,62,0.00,,,0.00,WeatherSnoop3.0,2013-10-23 15:34:00,
2013-10-23 10:39:00,55.5,41.0,30.16,ESE,109,0.0,-999.0,58,0.00,,,0.00,WeatherSnoop3.0,2013-10-23 15:39:00,
2013-10-23 10:44:00,55.7,40.7,30.16,SSE,147,1.0,-999.0,57,0.00,,,0.00,WeatherSnoop3.0,2013-10-23 15:44:00,
2013-10-23 10:49:00,55.3,41.7,30.16,SSE,163,4.0,-999.0,60,0.00,,,0.00,WeatherSnoop3.0,2013-10-23 15:49:00,
2013-10-23 10:54:00,55.3,40.3,30.16,SE,130,0.0,-999.0,57,0.00,,,0.00,WeatherSnoop3.0,2013-10-23 15:54:00,
2013-10-23 10:59:00,55.7,41.6,30.15,SE,142,0.0,-999.0,59,0.00,,,0.00,WeatherSnoop3.0,2013-10-23 15:59:00,
2013-10-23 11:05:00,56.2,40.7,30.15,SSE,156,2.0,-999.0,56,0.00,,,0.00,WeatherSnoop3.0,2013-10-23 16:05:00,
2013-10-23 11:10:00,56.3,40.3,30.15,SE,139,1.0,-999.0,55,0.00,,,0.00,WeatherSnoop3.0,2013-10-23 16:10:00,
2013-10-23 11:15:00,56.2,40.3,30.15,SE,130,2.0,-999.0,55,0.00,,,0.00,WeatherSnoop3.0,2013-10-23 16:15:00,
2013-10-23 11:20:00,56.4,40.0,30.15,SE,132,3.0,-999.0,54,0.00,,,0.00,WeatherSnoop3.0,2013-10-23 16:20:00,
2013-10-23 11:25:00,56.8,40.8,30.15,SE,130,2.0,-999.0,55,0.00,,,0.00,WeatherSnoop3.0,2013-10-23 16:25:00,
2013-10-23 11:30:00,57.1,41.1,30.15,SE,138,0.0,-999.0,55,0.00,,,0.00,WeatherSnoop3.0,2013-10-23 16:30:00,
2013-10-23 11:35:00,57.6,42.0,30.15,SE,134,0.0,-999.0,56,0.00,,,0.00,WeatherSnoop3.0,2013-10-23 16:35:00,
2013-10-23 11:40:00,58.0,41.0,30.15,SE,129,0.0,-999.0,53,0.00,,,0.00,WeatherSnoop3.0,2013-10-23 16:40:00,
2013-10-23 11:45:00,58.3,42.2,30.15,SE,126,1.0,-999.0,55,0.00,,,0.00,WeatherSnoop3.0,2013-10-23 16:45:00,
2013-10-23 11:50:00,58.3,41.7,30.14,SE,132,0.0,-999.0,54,0.00,,,0.00,WeatherSnoop3.0,2013-10-23 16:50:00,
2013-10-23 11:55:00,58.6,43.0,30.14,ESE,122,0.0,-999.0,56,0.00,,,0.00,WeatherSnoop3.0,2013-10-23 16:55:00,
2013-10-23 12:00:00,59.2,42.1,30.14,South,176,0.0,-999.0,53,0.00,,,0.00,WeatherSnoop3.0,2013-10-23 17:00:00,
2013-10-23 12:05:00,59.6,42.4,30.14,East,90,0.0,-999.0,53,0.00,,,0.00,WeatherSnoop3.0,2013-10-23 17:05:00,
2013-10-23 12:10:00,60.1,41.9,30.13,SE,136,3.0,-999.0,51,0.00,,,0.00,WeatherSnoop3.0,2013-10-23 17:10:00,
2013-10-23 12:15:00,59.8,42.1,30.13,WSW,242,0.0,-999.0,52,0.00,,,0.00,WeatherSnoop3.0,2013-10-23 17:15:00,
2013-10-23 12:20:00,60.2,43.0,30.13,ESE,106,0.0,-999.0,53,0.00,,,0.00,WeatherSnoop3.0,2013-10-23 17:20:00,
2013-10-23 12:25:00,60.6,43.4,30.13,ESE,107,0.0,-999.0,53,0.00,,,0.00,WeatherSnoop3.0,2013-10-23 17:25:00,
2013-10-23 12:30:00,60.9,41.1,30.13,SE,132,0.0,-999.0,48,0.00,,,0.00,WeatherSnoop3.0,2013-10-23 17:30:00,
2013-10-23 12:35:00,61.1,42.3,30.13,ESE,113,0.0,-999.0,50,0.00,,,0.00,WeatherSnoop3.0,2013-10-23 17:35:00,
2013-10-23 12:40:00,61.3,42.0,30.12,SSE,155,0.0,-999.0,49,0.00,,,0.00,WeatherSnoop3.0,2013-10-23 17:40:00,
2013-10-23 12:45:00,60.9,41.6,30.12,SSW,213,4.0,-999.0,49,0.00,,,0.00,WeatherSnoop3.0,2013-10-23 17:45:00,
2013-10-23 12:50:00,60.7,41.4,30.11,SSE,157,1.0,-999.0,49,0.00,,,0.00,WeatherSnoop3.0,2013-10-23 17:50:00,
2013-10-23 12:55:00,60.8,42.6,30.11,SSE,148,1.0,-999.0,51,0.00,,,0.00,WeatherSnoop3.0,2013-10-23 17:55:00,
2013-10-23 13:00:00,61.3,45.0,30.10,East,98,0.0,-999.0,55,0.00,,,0.00,WeatherSnoop3.0,2013-10-23 18:00:00,
2013-10-23 13:06:00,61.4,42.1,30.09,SE,137,5.0,-999.0,49,0.00,,,0.00,WeatherSnoop3.0,2013-10-23 18:06:00,
2013-10-23 13:11:00,61.5,43.7,30.09,WSW,246,0.0,-999.0,52,0.00,,,0.00,WeatherSnoop3.0,2013-10-23 18:11:00,
2013-10-23 13:16:00,62.2,42.8,30.09,SSE,167,5.0,-999.0,49,0.00,,,0.00,WeatherSnoop3.0,2013-10-23 18:16:00,
2013-10-23 13:21:00,62.0,42.6,30.09,West,263,0.0,-999.0,49,0.00,,,0.00,WeatherSnoop3.0,2013-10-23 18:21:00,
2013-10-23 13:27:00,62.3,42.9,30.09,SE,132,2.0,-999.0,49,0.00,,,0.00,WeatherSnoop3.0,2013-10-23 18:27:00,
2013-10-23 13:32:00,62.8,42.8,30.08,WSW,256,0.0,-999.0,48,0.00,,,0.00,WeatherSnoop3.0,2013-10-23 18:32:00,
2013-10-23 13:38:00,63.1,42.0,30.08,SW,227,2.0,-999.0,46,0.00,,,0.00,WeatherSnoop3.0,2013-10-23 18:38:00,
2013-10-23 13:43:00,62.9,42.4,30.08,SE,133,1.0,-999.0,47,0.00,,,0.00,WeatherSnoop3.0,2013-10-23 18:43:00,
2013-10-23 13:48:00,63.1,43.6,30.08,ESE,109,0.0,-999.0,49,0.00,,,0.00,WeatherSnoop3.0,2013-10-23 18:48:00,
2013-10-23 13:53:00,63.9,43.3,30.07,ESE,113,5.0,-999.0,47,0.00,,,0.00,WeatherSnoop3.0,2013-10-23 18:53:00,
2013-10-23 13:59:00,63.5,42.3,30.07,SSE,159,1.0,-999.0,46,0.00,,,0.00,WeatherSnoop3.0,2013-10-23 18:59:00,
2013-10-23 14:04:00,63.3,43.3,30.06,SE,125,2.0,-999.0,48,0.00,,,0.00,WeatherSnoop3.0,2013-10-23 19:04:00,
2013-10-23 14:09:00,63.2,42.6,30.06,WSW,240,1.0,-999.0,47,0.00,,,0.00,WeatherSnoop3.0,2013-10-23 19:09:00,
2013-10-23 14:14:00,63.6,45.1,30.05,West,273,0.0,-999.0,51,0.00,,,0.00,WeatherSnoop3.0,2013-10-23 19:14:00,
2013-10-23 14:20:00,64.0,42.8,30.05,SSE,155,0.0,-999.0,46,0.00,,,0.00,WeatherSnoop3.0,2013-10-23 19:20:00,
2013-10-23 14:25:00,64.4,45.4,30.05,East,97,0.0,-999.0,50,0.00,,,0.00,WeatherSnoop3.0,2013-10-23 19:25:00,
2013-10-23 14:30:00,64.4,42.6,30.05,SSW,199,4.0,-999.0,45,0.00,,,0.00,WeatherSnoop3.0,2013-10-23 19:30:00,
2013-10-23 14:35:00,64.4,43.2,30.04,SSW,198,3.0,-999.0,46,0.00,,,0.00,WeatherSnoop3.0,2013-10-23 19:35:00,
2013-10-23 14:41:00,64.4,42.6,30.04,SE,138,3.0,-999.0,45,0.00,,,0.00,WeatherSnoop3.0,2013-10-23 19:41:00,
2013-10-23 14:46:00,64.7,42.9,30.04,ESE,115,2.0,-999.0,45,0.00,,,0.00,WeatherSnoop3.0,2013-10-23 19:46:00,
2013-10-23 14:53:00,65.3,43.4,30.03,SE,134,0.0,-999.0,45,0.00,,,0.00,WeatherSnoop3.0,2013-10-23 19:53:00,
2013-10-23 14:58:00,65.6,44.3,30.03,ESE,111,3.0,-999.0,46,0.00,,,0.00,WeatherSnoop3.0,2013-10-23 19:58:00,
2013-10-23 15:03:00,66.0,44.0,30.03,East,100,1.0,-999.0,45,0.00,,,0.00,WeatherSnoop3.0,2013-10-23 20:03:00,
2013-10-23 15:08:00,66.3,43.7,30.03,SE,133,3.0,-999.0,44,0.00,,,0.00,WeatherSnoop3.0,2013-10-23 20:08:00,
2013-10-23 15:13:00,66.4,43.8,30.02,SE,130,6.0,-999.0,44,0.00,,,0.00,WeatherSnoop3.0,2013-10-23 20:13:00,
2013-10-23 15:18:00,66.4,43.8,30.02,SSE,156,1.0,-999.0,44,0.00,,,0.00,WeatherSnoop3.0,2013-10-23 20:18:00,
2013-10-23 15:23:00,66.3,43.7,30.02,South,190,0.0,-999.0,44,0.00,,,0.00,WeatherSnoop3.0,2013-10-23 20:23:00,
2013-10-23 15:28:00,67.1,43.9,30.01,SE,144,4.0,-999.0,43,0.00,,,0.00,WeatherSnoop3.0,2013-10-23 20:28:00,
2013-10-23 15:33:00,67.1,43.9,30.01,ESE,115,4.0,-999.0,43,0.00,,,0.00,WeatherSnoop3.0,2013-10-23 20:33:00,
2013-10-23 15:38:00,66.9,43.7,30.01,SE,126,0.0,-999.0,43,0.00,,,0.00,WeatherSnoop3.0,2013-10-23 20:38:00,
2013-10-23 15:43:00,67.0,43.8,30.00,SSW,199,2.0,-999.0,43,0.00,,,0.00,WeatherSnoop3.0,2013-10-23 20:43:00,
2013-10-23 15:48:00,67.1,44.5,30.00,SSE,168,6.0,-999.0,44,0.00,,,0.00,WeatherSnoop3.0,2013-10-23 20:48:00,
2013-10-23 15:53:00,67.2,45.7,30.00,ESE,105,2.0,-999.0,46,0.00,,,0.00,WeatherSnoop3.0,2013-10-23 20:53:00,
2013-10-23 15:59:00,67.5,45.4,30.00,SW,231,0.0,-999.0,45,0.00,,,0.00,WeatherSnoop3.0,2013-10-23 20:59:00,
2013-10-23 16:04:00,67.9,45.2,30.00,ESE,109,5.0,-999.0,44,0.00,,,0.00,WeatherSnoop3.0,2013-10-23 21:04:00,
2013-10-23 16:09:00,67.8,45.1,29.99,East,96,2.0,-999.0,44,0.00,,,0.00,WeatherSnoop3.0,2013-10-23 21:09:00,
2013-10-23 16:15:00,68.1,45.4,29.99,SE,134,0.0,-999.0,44,0.00,,,0.00,WeatherSnoop3.0,2013-10-23 21:15:00,
2013-10-23 16:20:00,67.9,45.2,29.99,ESE,121,5.0,-999.0,44,0.00,,,0.00,WeatherSnoop3.0,2013-10-23 21:20:00,
2013-10-23 16:26:00,67.7,45.0,29.98,ESE,109,4.0,-999.0,44,0.00,,,0.00,WeatherSnoop3.0,2013-10-23 21:26:00,
2013-10-23 19:23:00,58.4,49.0,30.00,SE,144,0.0,-999.0,71,0.00,,,0.00,WeatherSnoop3.0,2013-10-24 00:23:00,
2013-10-23 19:28:00,58.2,48.5,30.00,SE,144,0.0,-999.0,70,0.00,,,0.00,WeatherSnoop3.0,2013-10-24 00:28:00,
2013-10-23 19:33:00,57.9,48.6,30.00,SE,144,0.0,-999.0,71,0.00,,,0.00,WeatherSnoop3.0,2013-10-24 00:33:00,
2013-10-23 19:38:00,57.6,49.0,30.00,SE,144,0.0,-999.0,73,0.00,,,0.00,WeatherSnoop3.0,2013-10-24 00:38:00,
2013-10-23 19:43:00,57.3,49.1,30.00,SE,144,0.0,-999.0,74,0.00,,,0.00,WeatherSnoop3.0,2013-10-24 00:43:00,
2013-10-23 19:48:00,57.0,48.8,30.00,SE,144,0.0,-999.0,74,0.00,,,0.00,WeatherSnoop3.0,2013-10-24 00:48:00,
2013-10-23 19:53:00,56.7,49.2,30.00,SE,144,0.0,-999.0,76,0.00,,,0.00,WeatherSnoop3.0,2013-10-24 00:53:00,
2013-10-23 19:58:00,56.4,48.9,30.01,SE,144,0.0,-999.0,76,0.00,,,0.00,WeatherSnoop3.0,2013-10-24 00:58:00,
2013-10-23 20:03:00,56.3,49.2,30.01,SE,144,0.0,-999.0,77,0.00,,,0.00,WeatherSnoop3.0,2013-10-24 01:03:00,
2013-10-23 20:08:00,56.1,49.3,30.01,SE,144,0.0,-999.0,78,0.00,,,0.00,WeatherSnoop3.0,2013-10-24 01:08:00,
2013-10-23 20:14:00,55.9,49.1,30.01,SE,144,0.0,-999.0,78,0.00,,,0.00,WeatherSnoop3.0,2013-10-24 01:14:00,
2013-10-23 20:19:00,55.7,49.3,30.01,SE,144,0.0,-999.0,79,0.00,,,0.00,WeatherSnoop3.0,2013-10-24 01:19:00,
2013-10-23 20:25:00,55.5,49.1,30.01,SE,144,0.0,-999.0,79,0.00,,,0.00,WeatherSnoop3.0,2013-10-24 01:25:00,
2013-10-23 20:30:00,55.4,49.3,30.01,SE,144,0.0,-999.0,80,0.00,,,0.00,WeatherSnoop3.0,2013-10-24 01:30:00,
2013-10-23 20:35:00,55.3,49.2,30.02,SE,144,0.0,-999.0,80,0.00,,,0.00,WeatherSnoop3.0,2013-10-24 01:35:00,
2013-10-23 20:41:00,55.2,49.1,30.02,SE,144,0.0,-999.0,80,0.00,,,0.00,WeatherSnoop3.0,2013-10-24 01:41:00,
2013-10-23 20:46:00,55.1,49.0,30.02,SE,144,0.0,-999.0,80,0.00,,,0.00,WeatherSnoop3.0,2013-10-24 01:46:00,
2013-10-23 20:51:00,55.0,48.9,30.02,SE,144,0.0,-999.0,80,0.00,,,0.00,WeatherSnoop3.0,2013-10-24 01:51:00,
2013-10-23 20:57:00,54.9,48.8,30.02,SE,144,0.0,-999.0,80,0.00,,,0.00,WeatherSnoop3.0,2013-10-24 01:57:00,
2013-10-23 21:02:00,54.9,48.8,30.02,SE,144,0.0,-999.0,80,0.00,,,0.00,WeatherSnoop3.0,2013-10-24 02:02:00,
2013-10-23 21:07:00,54.8,48.7,30.02,SE,144,0.0,-999.0,80,0.00,,,0.00,WeatherSnoop3.0,2013-10-24 02:07:00,
2013-10-23 21:12:00,54.7,48.7,30.02,SE,144,0.0,-999.0,80,0.00,,,0.00,WeatherSnoop3.0,2013-10-24 02:12:00,
2013-10-23 21:18:00,54.6,48.6,30.02,SE,144,0.0,-999.0,80,0.00,,,0.00,WeatherSnoop3.0,2013-10-24 02:18:00,
2013-10-23 21:23:00,54.6,48.9,30.02,SE,144,0.0,-999.0,81,0.00,,,0.00,WeatherSnoop3.0,2013-10-24 02:23:00,
2013-10-23 21:29:00,54.5,48.8,30.02,SE,144,0.0,-999.0,81,0.00,,,0.00,WeatherSnoop3.0,2013-10-24 02:29:00,
2013-10-23 21:34:00,54.4,48.7,30.02,SE,144,0.0,-999.0,81,0.00,,,0.00,WeatherSnoop3.0,2013-10-24 02:34:00,
2013-10-23 21:39:00,54.4,48.7,30.02,SE,144,0.0,-999.0,81,0.00,,,0.00,WeatherSnoop3.0,2013-10-24 02:39:00,
2013-10-23 21:45:00,54.3,48.6,30.03,SE,144,0.0,-999.0,81,0.00,,,0.00,WeatherSnoop3.0,2013-10-24 02:45:00,
2013-10-23 21:50:00,54.4,48.4,30.03,SE,144,0.0,-999.0,80,0.00,,,0.00,WeatherSnoop3.0,2013-10-24 02:50:00,
2013-10-23 21:55:00,54.4,48.7,30.03,SE,144,0.0,-999.0,81,0.00,,,0.00,WeatherSnoop3.0,2013-10-24 02:55:00,
2013-10-23 22:01:00,54.4,48.4,30.03,SE,144,0.0,-999.0,80,0.00,,,0.00,WeatherSnoop3.0,2013-10-24 03:01:00,
2013-10-23 22:06:00,54.4,48.7,30.03,SE,144,0.0,-999.0,81,0.00,,,0.00,WeatherSnoop3.0,2013-10-24 03:06:00,
2013-10-23 22:12:00,54.3,48.6,30.03,SE,144,0.0,-999.0,81,0.00,,,0.00,WeatherSnoop3.0,2013-10-24 03:12:00,
2013-10-23 22:17:00,54.6,47.9,30.04,SE,140,0.0,-999.0,78,0.00,,,0.00,WeatherSnoop3.0,2013-10-24 03:17:00,
2013-10-23 22:22:00,55.3,47.2,30.04,SE,140,0.0,-999.0,74,0.00,,,0.00,WeatherSnoop3.0,2013-10-24 03:22:00,
2013-10-23 22:27:00,56.0,47.1,30.04,SE,140,0.0,-999.0,72,0.00,,,0.00,WeatherSnoop3.0,2013-10-24 03:27:00,
2013-10-23 22:33:00,56.7,47.4,30.04,ESE,123,0.0,-999.0,71,0.00,,,0.00,WeatherSnoop3.0,2013-10-24 03:33:00,
2013-10-23 22:38:00,56.8,47.1,30.04,ESE,123,0.0,-999.0,70,0.00,,,0.00,WeatherSnoop3.0,2013-10-24 03:38:00,
2013-10-23 22:43:00,56.7,47.0,30.04,ESE,123,0.0,-999.0,70,0.00,,,0.00,WeatherSnoop3.0,2013-10-24 03:43:00,
2013-10-23 22:49:00,56.5,46.8,30.05,ESE,123,0.0,-999.0,70,0.00,,,0.00,WeatherSnoop3.0,2013-10-24 03:49:00,
2013-10-23 22:54:00,56.3,47.0,30.05,ESE,123,0.0,-999.0,71,0.00,,,0.00,WeatherSnoop3.0,2013-10-24 03:54:00,
2013-10-23 23:00:00,56.1,46.8,30.05,ESE,123,0.0,-999.0,71,0.00,,,0.00,WeatherSnoop3.0,2013-10-24 04:00:00,
2013-10-23 23:01:00,56.1,46.5,30.05,ESE,123,0.0,-999.0,70,0.00,,,0.00,WeatherSnoop3.0,2013-10-24 04:01:00,
2013-10-23 23:02:00,56.1,46.8,30.05,ESE,123,0.0,-999.0,71,0.00,,,0.00,WeatherSnoop3.0,2013-10-24 04:02:00,
2013-10-23 23:05:00,56.0,46.4,30.05,ESE,123,0.0,-999.0,70,0.00,,,0.00,WeatherSnoop3.0,2013-10-24 04:05:00,
2013-10-23 23:08:00,56.0,46.4,30.05,ESE,123,0.0,-999.0,70,0.00,,,0.00,WeatherSnoop3.0,2013-10-24 04:08:00,
2013-10-23 23:13:00,55.9,46.6,30.05,ESE,123,0.0,-999.0,71,0.00,,,0.00,WeatherSnoop3.0,2013-10-24 04:13:00,
2013-10-23 23:19:00,55.7,46.8,30.05,ESE,123,0.0,-999.0,72,0.00,,,0.00,WeatherSnoop3.0,2013-10-24 04:19:00,
2013-10-23 23:24:00,55.4,46.9,30.05,ESE,123,0.0,-999.0,73,0.00,,,0.00,WeatherSnoop3.0,2013-10-24 04:24:00,
2013-10-23 23:29:00,55.1,47.0,30.05,ESE,123,0.0,-999.0,74,0.00,,,0.00,WeatherSnoop3.0,2013-10-24 04:29:00,
2013-10-23 23:35:00,54.8,47.0,30.05,ESE,123,0.0,-999.0,75,0.00,,,0.00,WeatherSnoop3.0,2013-10-24 04:35:00,
2013-10-23 23:40:00,54.5,46.7,30.05,ESE,123,0.0,-999.0,75,0.00,,,0.00,WeatherSnoop3.0,2013-10-24 04:40:00,
2013-10-23 23:45:00,54.2,47.1,30.05,ESE,123,0.0,-999.0,77,0.00,,,0.00,WeatherSnoop3.0,2013-10-24 04:45:00,
2013-10-23 23:51:00,53.9,47.2,30.05,ESE,123,0.0,-999.0,78,0.00,,,0.00,WeatherSnoop3.0,2013-10-24 04:51:00,
2013-10-23 23:56:00,53.5,46.8,30.05,ESE,123,0.0,-999.0,78,0.00,,,0.00,WeatherSnoop3.0,2013-10-24 04:56:00,